createdAt,value
2022-12-01T00:01:26.729Z,61.34
2022-12-01T00:03:54.646Z,61.73
2022-12-01T00:06:22.735Z,61.82
2022-12-01T00:09:14.017Z,61.93
2022-12-01T00:11:44.954Z,61.95
2022-12-01T00:14:13.053Z,62.45
2022-12-01T00:16:41.283Z,62.97
2022-12-01T00:19:09.580Z,63.19
2022-12-01T00:21:37.402Z,63.46
2022-12-01T00:24:10.837Z,61.79
2022-12-01T00:26:38.870Z,60.96
2022-12-01T00:29:06.873Z,61.31
2022-12-01T00:31:35.101Z,62.18
2022-12-01T00:34:05.695Z,62.00
2022-12-01T00:36:36.206Z,61.95
2022-12-01T00:39:04.236Z,61.19
2022-12-01T00:41:32.143Z,61.88
2022-12-01T00:44:00.109Z,62.10
2022-12-01T00:46:28.038Z,62.61
2022-12-01T00:48:55.945Z,62.55
2022-12-01T00:51:24.732Z,62.60
2022-12-01T00:53:52.595Z,62.27
2022-12-01T00:56:21.232Z,62.45
2022-12-01T00:58:49.209Z,62.51
2022-12-01T01:01:17.176Z,62.38
2022-12-01T01:03:45.011Z,62.02
2022-12-01T01:06:13.150Z,61.60
2022-12-01T01:08:41.224Z,62.09
2022-12-01T01:11:09.497Z,62.00
2022-12-01T01:13:37.657Z,61.85
2022-12-01T01:16:08.826Z,62.22
2022-12-01T01:18:36.781Z,62.02
2022-12-01T01:21:08.550Z,62.27
2022-12-01T01:23:38.657Z,62.25
2022-12-01T01:26:30.470Z,62.19
2022-12-01T01:29:00.734Z,61.95
2022-12-01T01:31:29.990Z,61.24
2022-12-01T01:33:58.145Z,61.33
2022-12-01T01:36:26.758Z,61.33
2022-12-01T01:38:55.751Z,60.94
2022-12-01T01:41:24.005Z,60.52
2022-12-01T01:44:03.257Z,60.67
2022-12-01T01:46:33.307Z,60.33
2022-12-01T01:49:03.257Z,60.35
2022-12-01T01:51:49.178Z,60.05
2022-12-01T01:54:31.657Z,60.46
2022-12-01T01:57:00.577Z,60.84
2022-12-01T01:59:38.665Z,61.10
2022-12-01T02:02:09.460Z,61.27
2022-12-01T02:04:40.610Z,60.94
2022-12-01T02:07:09.029Z,60.82
2022-12-01T02:09:36.906Z,61.08
2022-12-01T02:12:25.004Z,61.31
2022-12-01T02:15:27.583Z,61.02
2022-12-01T02:18:07.415Z,60.82
2022-12-01T02:21:19.446Z,60.98
2022-12-01T02:24:20.816Z,61.13
2022-12-01T02:27:09.040Z,61.16
2022-12-01T02:29:56.903Z,61.16
2022-12-01T02:32:50.565Z,60.43
2022-12-01T02:35:35.941Z,60.28
2022-12-01T02:38:20.576Z,60.96
2022-12-01T02:41:43.083Z,60.78
2022-12-01T02:44:34.255Z,60.89
2022-12-01T02:47:10.592Z,60.66
2022-12-01T02:49:50.856Z,60.53
2022-12-01T02:52:19.007Z,61.29
2022-12-01T02:54:47.017Z,61.58
2022-12-01T02:57:15.919Z,61.46
2022-12-01T02:59:47.824Z,61.02
2022-12-01T03:02:30.136Z,61.07
2022-12-01T03:05:05.923Z,61.29
2022-12-01T03:07:45.941Z,61.01
2022-12-01T03:10:39.251Z,61.08
2022-12-01T03:13:15.909Z,61.31
2022-12-01T03:15:57.340Z,61.37
2022-12-01T03:18:31.382Z,61.09
2022-12-01T03:21:28.659Z,61.40
2022-12-01T03:24:10.753Z,61.45
2022-12-01T03:26:38.824Z,61.11
2022-12-01T03:29:10.705Z,61.18
2022-12-01T03:32:04.936Z,61.46
2022-12-01T03:34:41.416Z,61.68
2022-12-01T03:37:14.655Z,61.38
2022-12-01T03:39:42.551Z,61.49
2022-12-01T03:42:26.291Z,61.65
2022-12-01T03:44:56.660Z,61.93
2022-12-01T03:47:32.147Z,61.54
2022-12-01T03:50:00.580Z,61.15
2022-12-01T03:52:59.906Z,60.72
2022-12-01T03:55:30.014Z,60.95
2022-12-01T03:58:11.481Z,61.08
2022-12-01T04:00:39.405Z,61.18
2022-12-01T04:03:07.348Z,60.96
2022-12-01T04:05:35.484Z,60.42
2022-12-01T04:08:03.503Z,60.67
2022-12-01T04:10:33.133Z,61.34
2022-12-01T04:13:01.068Z,60.75
2022-12-01T04:15:29.008Z,61.17
2022-12-01T04:17:56.969Z,61.00
2022-12-01T04:20:24.933Z,60.70
2022-12-01T04:22:52.795Z,60.49
2022-12-01T04:25:20.773Z,60.68
2022-12-01T04:27:49.248Z,60.49
2022-12-01T04:30:17.522Z,60.66
2022-12-01T04:32:45.901Z,61.03
2022-12-01T04:35:13.766Z,61.51
2022-12-01T04:37:41.610Z,61.18
2022-12-01T04:40:10.503Z,61.42
2022-12-01T04:42:38.385Z,61.87
2022-12-01T04:45:07.219Z,61.89
2022-12-01T04:47:35.312Z,62.00
2022-12-01T04:50:03.379Z,62.74
2022-12-01T04:52:35.250Z,62.78
2022-12-01T04:55:04.507Z,62.75
2022-12-01T04:57:32.445Z,62.69
2022-12-01T05:00:00.227Z,62.60
2022-12-01T05:02:28.111Z,62.57
2022-12-01T05:04:56.125Z,62.59
2022-12-01T05:07:24.035Z,62.78
2022-12-01T05:09:52.116Z,63.08
2022-12-01T05:12:20.247Z,62.90
2022-12-01T05:14:48.246Z,62.83
2022-12-01T05:17:16.297Z,62.95
2022-12-01T05:20:03.200Z,63.17
2022-12-01T05:23:03.332Z,63.68
2022-12-01T05:25:19.409Z,63.80
2022-12-01T05:27:47.276Z,64.35
2022-12-01T05:30:15.254Z,64.24
2022-12-01T05:32:43.075Z,63.28
2022-12-01T05:35:10.904Z,63.06
2022-12-01T05:37:38.745Z,62.87
2022-12-01T05:40:07.666Z,62.16
2022-12-01T05:42:35.540Z,62.64
2022-12-01T05:45:03.596Z,62.68
2022-12-01T05:47:31.422Z,62.83
2022-12-01T05:50:03.745Z,62.15
2022-12-01T05:52:35.351Z,62.24
2022-12-01T05:55:04.548Z,62.28
2022-12-01T05:57:33.232Z,61.91
2022-12-01T06:00:01.055Z,62.22
2022-12-01T06:02:41.559Z,62.28
2022-12-01T06:05:09.834Z,62.39
2022-12-01T06:07:40.533Z,62.36
2022-12-01T06:10:09.916Z,62.71
2022-12-01T06:12:38.042Z,62.44
2022-12-01T06:15:07.157Z,62.67
2022-12-01T06:17:39.939Z,62.65
2022-12-01T06:20:09.376Z,62.55
2022-12-01T06:22:37.382Z,62.67
2022-12-01T06:25:06.016Z,62.81
2022-12-01T06:27:33.962Z,62.74
2022-12-01T06:30:02.213Z,62.81
2022-12-01T06:32:30.188Z,62.66
2022-12-01T06:34:58.045Z,63.76
2022-12-01T06:37:27.753Z,64.24
2022-12-01T06:39:55.619Z,64.20
2022-12-01T06:42:23.689Z,63.98
2022-12-01T06:44:51.549Z,64.06
2022-12-01T06:47:19.443Z,64.30
2022-12-01T06:49:47.708Z,64.21
2022-12-01T06:52:15.971Z,64.32
2022-12-01T06:54:43.833Z,64.21
2022-12-01T06:57:12.034Z,64.00
2022-12-01T06:59:40.083Z,63.42
2022-12-01T07:02:11.277Z,62.00
2022-12-01T07:04:39.228Z,61.45
2022-12-01T07:07:07.565Z,61.64
2022-12-01T07:09:35.530Z,61.32
2022-12-01T07:12:03.808Z,60.63
2022-12-01T07:14:34.850Z,60.92
2022-12-01T07:17:02.752Z,61.69
2022-12-01T07:19:30.704Z,61.13
2022-12-01T07:21:58.654Z,60.31
2022-12-01T07:24:26.518Z,60.26
2022-12-01T07:26:54.388Z,60.50
2022-12-01T07:29:22.332Z,60.40
2022-12-01T07:31:50.167Z,60.79
2022-12-01T07:34:18.093Z,60.21
2022-12-01T07:36:45.948Z,60.40
2022-12-01T07:39:13.813Z,60.96
2022-12-01T07:41:41.670Z,60.69
2022-12-01T07:44:10.824Z,60.36
2022-12-01T07:46:38.729Z,60.38
2022-12-01T07:49:07.192Z,60.66
2022-12-01T07:51:35.202Z,60.10
2022-12-01T07:54:05.001Z,59.80
2022-12-01T07:56:33.082Z,60.21
2022-12-01T07:59:07.594Z,60.47
2022-12-01T08:01:35.469Z,61.27
2022-12-01T08:04:03.479Z,61.21
2022-12-01T08:06:31.767Z,60.99
2022-12-01T08:08:59.701Z,61.04
2022-12-01T08:11:31.439Z,60.45
2022-12-01T08:13:59.326Z,60.13
2022-12-01T08:16:27.321Z,59.98
2022-12-01T08:18:55.267Z,60.05
2022-12-01T08:21:23.947Z,60.98
2022-12-01T08:23:56.423Z,60.88
2022-12-01T08:26:25.230Z,61.51
2022-12-01T08:28:53.200Z,62.20
2022-12-01T08:31:24.646Z,61.80
2022-12-01T08:33:52.781Z,61.95
2022-12-01T08:36:20.879Z,62.36
2022-12-01T08:38:52.051Z,62.14
2022-12-01T08:41:20.144Z,61.90
2022-12-01T08:44:03.734Z,62.15
2022-12-01T08:46:33.460Z,61.63
2022-12-01T08:49:02.794Z,61.59
2022-12-01T08:51:30.810Z,61.25
2022-12-01T08:53:59.402Z,60.66
2022-12-01T08:56:31.079Z,60.77
2022-12-01T08:58:58.989Z,60.83
2022-12-01T09:01:27.167Z,60.99
2022-12-01T09:04:08.950Z,60.49
2022-12-01T09:06:41.944Z,60.78
2022-12-01T09:09:12.764Z,60.29
2022-12-01T09:11:41.306Z,60.05
2022-12-01T09:14:09.467Z,59.96
2022-12-01T09:16:37.571Z,60.54
2022-12-01T09:19:05.667Z,60.80
2022-12-01T09:21:34.610Z,60.59
2022-12-01T09:24:02.649Z,60.76
2022-12-01T09:26:30.624Z,60.30
2022-12-01T09:29:03.673Z,60.45
2022-12-01T09:31:31.873Z,59.90
2022-12-01T09:34:08.321Z,59.85
2022-12-01T09:36:36.821Z,60.08
2022-12-01T09:39:06.842Z,60.36
2022-12-01T09:41:52.025Z,60.98
2022-12-01T09:44:45.449Z,60.68
2022-12-01T09:47:28.244Z,61.53
2022-12-01T09:50:13.042Z,61.37
2022-12-01T09:52:47.680Z,61.29
2022-12-01T09:55:17.970Z,61.39
2022-12-01T09:57:51.538Z,61.89
2022-12-01T10:00:30.104Z,61.72
2022-12-01T10:03:33.259Z,61.20
2022-12-01T10:09:29.811Z,61.59
2022-12-01T10:12:18.709Z,61.39
2022-12-01T10:14:48.792Z,61.98
2022-12-01T10:17:52.567Z,61.05
2022-12-01T10:21:14.878Z,61.39
2022-12-01T10:23:55.146Z,61.79
2022-12-01T10:26:30.750Z,61.11
2022-12-01T10:29:10.982Z,60.95
2022-12-01T10:31:54.221Z,60.81
2022-12-01T10:34:48.681Z,60.24
2022-12-01T10:37:20.371Z,59.99
2022-12-01T10:39:50.423Z,60.90
2022-12-01T10:42:32.803Z,59.99
2022-12-01T10:45:06.292Z,59.79
2022-12-01T10:47:34.257Z,58.69
2022-12-01T10:50:04.003Z,58.64
2022-12-01T10:52:36.931Z,61.16
2022-12-01T10:55:24.126Z,65.02
2022-12-01T10:57:52.893Z,66.16
2022-12-01T11:03:22.408Z,62.33
2022-12-01T11:05:55.673Z,61.16
2022-12-01T11:08:46.263Z,61.13
2022-12-01T11:11:23.912Z,60.87
2022-12-01T11:13:56.031Z,60.55
2022-12-01T11:16:44.264Z,59.97
2022-12-01T11:19:27.549Z,59.60
2022-12-01T11:21:58.717Z,60.25
2022-12-01T11:24:44.512Z,62.24
2022-12-01T11:27:22.854Z,65.73
2022-12-01T11:29:53.036Z,63.77
2022-12-01T11:32:30.329Z,62.13
2022-12-01T11:35:07.660Z,60.76
2022-12-01T11:37:54.860Z,59.47
2022-12-01T11:40:34.097Z,59.88
2022-12-01T11:43:05.196Z,63.46
2022-12-01T11:45:40.290Z,66.58
2022-12-01T11:48:15.458Z,65.12
2022-12-01T11:50:44.662Z,63.36
2022-12-01T11:53:31.815Z,62.43
2022-12-01T11:56:28.919Z,61.16
2022-12-01T11:59:06.587Z,61.30
2022-12-01T12:01:52.862Z,61.36
2022-12-01T12:04:48.554Z,60.67
2022-12-01T12:08:00.219Z,60.82
2022-12-01T12:10:56.004Z,60.70
2022-12-01T12:13:47.046Z,61.02
2022-12-01T12:16:37.062Z,60.40
2022-12-01T12:23:13.831Z,60.93
2022-12-01T12:25:59.057Z,61.10
2022-12-01T12:28:38.944Z,60.89
2022-12-01T12:31:35.130Z,61.83
2022-12-01T12:34:19.332Z,61.58
2022-12-01T12:37:23.780Z,62.06
2022-12-01T12:40:12.950Z,62.79
2022-12-01T12:43:44.874Z,63.53
2022-12-01T12:46:17.807Z,63.32
2022-12-01T12:49:20.675Z,62.89
2022-12-01T12:52:08.417Z,62.53
2022-12-01T12:55:12.475Z,62.26
2022-12-01T12:57:48.552Z,61.70
2022-12-01T13:00:22.155Z,62.45
2022-12-01T13:03:09.856Z,62.46
2022-12-01T13:05:57.656Z,62.61
2022-12-01T13:08:48.184Z,62.61
2022-12-01T13:11:31.693Z,62.24
2022-12-01T13:14:15.674Z,62.49
2022-12-01T13:16:46.716Z,63.37
2022-12-01T13:19:38.851Z,63.56
2022-12-01T13:22:07.458Z,62.98
2022-12-01T13:24:35.357Z,62.94
2022-12-01T13:27:06.288Z,63.09
2022-12-01T13:29:38.494Z,63.17
2022-12-01T13:32:34.958Z,62.79
2022-12-01T13:35:06.591Z,63.07
2022-12-01T13:37:37.732Z,63.75
2022-12-01T13:40:21.291Z,63.04
2022-12-01T13:43:04.343Z,63.30
2022-12-01T13:45:37.780Z,62.42
2022-12-01T13:48:06.645Z,62.24
2022-12-01T13:50:44.904Z,61.94
2022-12-01T13:53:20.371Z,62.25
2022-12-01T13:56:03.569Z,61.73
2022-12-01T13:58:34.156Z,62.14
2022-12-01T14:01:20.986Z,62.15
2022-12-01T14:04:02.051Z,61.41
2022-12-01T14:06:36.285Z,61.20
2022-12-01T14:09:32.819Z,61.93
2022-12-01T14:12:03.304Z,62.39
2022-12-01T14:14:40.326Z,62.03
2022-12-01T14:17:25.755Z,62.42
2022-12-01T14:19:53.633Z,62.11
2022-12-01T14:22:45.252Z,61.68
2022-12-01T14:25:22.683Z,61.56
2022-12-01T14:27:54.172Z,61.60
2022-12-01T14:30:41.035Z,62.30
2022-12-01T14:33:42.450Z,62.47
2022-12-01T14:36:20.861Z,62.16
2022-12-01T14:38:54.593Z,62.25
2022-12-01T14:41:28.225Z,61.93
2022-12-01T14:44:06.831Z,62.73
2022-12-01T14:47:10.387Z,62.87
2022-12-01T14:50:06.319Z,62.33
2022-12-01T14:52:37.817Z,63.24
2022-12-01T14:55:14.321Z,63.76
2022-12-01T14:57:50.669Z,62.62
2022-12-01T15:00:27.670Z,63.36
2022-12-01T15:03:13.759Z,63.39
2022-12-01T15:05:42.817Z,63.20
2022-12-01T15:08:58.228Z,63.20
2022-12-01T15:11:25.787Z,63.34
2022-12-01T15:13:55.334Z,63.91
2022-12-01T15:16:29.459Z,63.91
2022-12-01T15:18:57.657Z,63.36
2022-12-01T15:21:30.610Z,63.51
2022-12-01T15:24:04.629Z,63.60
2022-12-01T15:26:47.369Z,62.88
2022-12-01T15:29:21.075Z,62.98
2022-12-01T15:31:54.365Z,62.98
2022-12-01T15:34:24.141Z,63.46
2022-12-01T15:36:52.830Z,63.27
2022-12-01T15:39:35.761Z,63.25
2022-12-01T15:42:03.976Z,62.92
2022-12-01T15:44:35.894Z,62.75
2022-12-01T15:47:36.148Z,62.53
2022-12-01T15:50:05.950Z,62.72
2022-12-01T15:52:42.502Z,62.13
2022-12-01T15:55:28.252Z,61.26
2022-12-01T15:57:56.495Z,61.39
2022-12-01T16:00:24.769Z,61.50
2022-12-01T16:02:57.517Z,61.51
2022-12-01T16:05:35.661Z,61.58
2022-12-01T16:08:27.234Z,62.02
2022-12-01T16:11:18.163Z,61.77
2022-12-01T16:13:55.597Z,61.85
2022-12-01T16:16:40.450Z,62.14
2022-12-01T16:19:11.583Z,61.84
2022-12-01T16:21:58.872Z,61.91
2022-12-01T16:24:38.544Z,62.04
2022-12-01T16:27:08.049Z,62.13
2022-12-01T16:30:08.375Z,62.22
2022-12-01T16:32:41.058Z,62.89
2022-12-01T16:35:26.662Z,63.28
2022-12-01T16:37:54.724Z,63.34
2022-12-01T16:40:22.980Z,63.05
2022-12-01T16:42:50.973Z,62.30
2022-12-01T16:45:19.429Z,62.40
2022-12-01T16:47:49.653Z,62.26
2022-12-01T16:50:19.666Z,61.96
2022-12-01T16:52:47.839Z,61.56
2022-12-01T16:55:42.559Z,61.63
2022-12-01T16:58:10.542Z,62.06
2022-12-01T17:00:38.470Z,62.29
2022-12-01T17:03:06.956Z,62.15
2022-12-01T17:05:35.049Z,61.91
2022-12-01T17:08:03.434Z,62.13
2022-12-01T17:10:31.464Z,61.26
2022-12-01T17:12:59.536Z,61.44
2022-12-01T17:15:27.397Z,62.25
2022-12-01T17:17:55.370Z,62.71
2022-12-01T17:20:23.337Z,62.82
2022-12-01T17:22:51.159Z,62.66
2022-12-01T17:25:19.068Z,63.06
2022-12-01T17:27:46.934Z,62.91
2022-12-01T17:30:15.055Z,62.64
2022-12-01T17:32:43.175Z,61.89
2022-12-01T17:35:11.144Z,62.09
2022-12-01T17:37:39.420Z,62.50
2022-12-01T17:40:08.866Z,62.23
2022-12-01T17:42:37.119Z,61.37
2022-12-01T17:45:06.021Z,61.78
2022-12-01T17:47:33.834Z,62.03
2022-12-01T17:50:02.096Z,61.25
2022-12-01T17:52:30.464Z,60.65
2022-12-01T17:54:59.291Z,60.39
2022-12-01T17:57:27.156Z,59.76
2022-12-01T17:59:55.060Z,58.95
2022-12-01T18:02:23.256Z,61.87
2022-12-01T18:04:51.558Z,65.83
2022-12-01T18:07:20.406Z,65.87
2022-12-01T18:09:48.431Z,64.80
2022-12-01T18:12:16.295Z,64.05
2022-12-01T18:14:44.159Z,63.39
2022-12-01T18:17:12.134Z,62.71
2022-12-01T18:19:40.547Z,62.26
2022-12-01T18:22:08.907Z,63.05
2022-12-01T18:24:36.957Z,62.55
2022-12-01T18:27:04.796Z,61.54
2022-12-01T18:29:33.912Z,60.66
2022-12-01T18:32:01.914Z,60.72
2022-12-01T18:34:29.815Z,60.49
2022-12-01T18:36:58.021Z,60.31
2022-12-01T18:39:25.940Z,59.41
2022-12-01T18:41:54.366Z,59.36
2022-12-01T18:44:22.339Z,61.41
2022-12-01T18:46:50.343Z,65.40
2022-12-01T18:49:19.109Z,66.91
2022-12-01T18:51:47.058Z,65.47
2022-12-01T18:54:16.062Z,64.17
2022-12-01T18:56:43.979Z,63.35
2022-12-01T18:59:12.865Z,62.17
2022-12-01T19:01:43.945Z,61.17
2022-12-01T19:04:13.153Z,60.44
2022-12-01T19:06:41.868Z,59.57
2022-12-01T19:09:11.661Z,58.93
2022-12-01T19:11:40.740Z,61.50
2022-12-01T19:14:16.384Z,65.27
2022-12-01T19:16:45.325Z,65.09
2022-12-01T19:19:13.358Z,63.53
2022-12-01T19:21:41.723Z,62.78
2022-12-01T19:24:10.231Z,62.39
2022-12-01T19:26:38.114Z,62.17
2022-12-01T19:29:06.197Z,61.48
2022-12-01T19:31:34.721Z,60.72
2022-12-01T19:34:04.595Z,60.04
2022-12-01T19:36:32.808Z,60.12
2022-12-01T19:39:04.034Z,59.75
2022-12-01T19:41:38.660Z,60.46
2022-12-01T19:44:06.752Z,59.70
2022-12-01T19:46:34.812Z,59.31
2022-12-01T19:49:02.971Z,58.51
2022-12-01T19:51:37.311Z,61.80
2022-12-01T19:54:08.236Z,64.44
2022-12-01T19:56:36.514Z,64.47
2022-12-01T19:59:07.150Z,63.19
2022-12-01T20:01:35.092Z,62.49
2022-12-01T20:04:03.496Z,61.92
2022-12-01T20:06:32.890Z,62.12
2022-12-01T20:09:03.003Z,61.31
2022-12-01T20:11:33.070Z,61.16
2022-12-01T20:14:02.503Z,60.65
2022-12-01T20:16:33.721Z,60.39
2022-12-01T20:19:03.176Z,60.37
2022-12-01T20:21:36.261Z,60.46
2022-12-01T20:24:06.281Z,60.79
2022-12-01T20:26:43.504Z,60.53
2022-12-01T20:29:14.836Z,60.32
2022-12-01T20:31:43.210Z,60.14
2022-12-01T20:34:31.427Z,59.71
2022-12-01T20:36:59.603Z,58.07
2022-12-01T20:39:28.621Z,61.15
2022-12-01T20:41:56.475Z,65.05
2022-12-01T20:44:24.430Z,65.18
2022-12-01T20:46:52.706Z,63.87
2022-12-01T20:49:20.875Z,62.79
2022-12-01T20:51:48.830Z,61.97
2022-12-01T20:54:32.741Z,61.84
2022-12-01T20:57:00.967Z,61.31
2022-12-01T20:59:29.263Z,60.23
2022-12-01T21:01:57.265Z,60.11
2022-12-01T21:04:25.281Z,60.36
2022-12-01T21:06:57.590Z,60.11
2022-12-01T21:09:26.121Z,59.77
2022-12-01T21:12:12.761Z,60.15
2022-12-01T21:15:06.386Z,60.78
2022-12-01T21:17:38.802Z,60.88
2022-12-01T21:20:26.091Z,60.94
2022-12-01T21:22:54.057Z,60.51
2022-12-01T21:25:24.462Z,58.76
2022-12-01T21:27:52.389Z,58.89
2022-12-01T21:30:25.073Z,61.62
2022-12-01T21:32:53.188Z,65.80
2022-12-01T21:35:27.105Z,66.21
2022-12-01T21:38:03.377Z,64.54
2022-12-01T21:40:31.336Z,63.02
2022-12-01T21:43:21.855Z,62.15
2022-12-01T21:45:56.317Z,61.85
2022-12-01T21:48:24.322Z,60.71
2022-12-01T21:50:59.689Z,59.33
2022-12-01T21:53:33.523Z,58.15
2022-12-01T21:56:01.961Z,60.35
2022-12-01T21:58:37.185Z,63.79
2022-12-01T22:01:28.309Z,66.15
2022-12-01T22:04:02.067Z,64.26
2022-12-01T22:06:37.641Z,63.70
2022-12-01T22:09:33.672Z,63.20
2022-12-01T22:12:24.757Z,62.46
2022-12-01T22:14:53.611Z,61.31
2022-12-01T22:17:21.567Z,60.81
2022-12-01T22:19:58.219Z,60.85
2022-12-01T22:22:28.308Z,60.61
2022-12-01T22:25:21.454Z,60.64
2022-12-01T22:27:49.387Z,60.45
2022-12-01T22:30:20.851Z,60.64
2022-12-01T22:33:05.201Z,59.55
2022-12-01T22:35:44.901Z,58.53
2022-12-01T22:38:19.515Z,61.18
2022-12-01T22:41:12.141Z,64.19
2022-12-01T22:43:50.884Z,65.10
2022-12-01T22:46:26.413Z,63.39
2022-12-01T22:49:10.135Z,61.60
2022-12-01T22:51:48.911Z,60.84
2022-12-01T22:54:16.726Z,60.69
2022-12-01T22:56:46.667Z,60.24
2022-12-01T22:59:29.587Z,60.04
2022-12-01T23:02:00.112Z,60.23
2022-12-01T23:04:32.669Z,59.73
2022-12-01T23:07:29.812Z,60.13
2022-12-01T23:10:14.325Z,59.66
2022-12-01T23:12:42.887Z,58.59
2022-12-01T23:15:35.039Z,59.42
2022-12-01T23:18:29.092Z,62.60
2022-12-01T23:20:59.028Z,65.02
2022-12-01T23:23:32.398Z,65.63
2022-12-01T23:26:04.366Z,64.58
2022-12-01T23:28:32.359Z,62.94
2022-12-01T23:31:00.259Z,61.99
2022-12-01T23:33:29.901Z,61.47
2022-12-01T23:36:00.934Z,61.43
2022-12-01T23:38:36.281Z,61.27
2022-12-01T23:41:27.285Z,60.67
2022-12-01T23:43:55.774Z,60.81
2022-12-01T23:46:25.070Z,60.84
2022-12-01T23:49:05.251Z,60.93
2022-12-01T23:51:37.875Z,61.05
2022-12-01T23:54:28.091Z,61.07
2022-12-01T23:56:59.131Z,61.04
2022-12-01T23:59:27.045Z,60.52
